Time;durP1;ratioP1;P1;durP2;ratioP2;P2;SDS_P1;SDS_P2;PMS_P1;PMS_P2;Temp;Humidity;BMP_temperature;BMP_pressure;BME280_temperature;BME280_humidity;BME280_pressure;Samples;Min_cycle;Max_cycle;Signal;HPM_P1;HPM_P2
2021/05/11 00:01:46;;;;;;;8.70;5.50;;;14.10;99.90;;;;;;5093993;28;20028;-65
2021/05/11 00:04:13;;;;;;;8.52;5.65;;;14.20;99.90;;;;;;5093857;28;20036;-65
2021/05/11 00:06:39;;;;;;;8.77;6.32;;;14.20;99.90;;;;;;5093967;28;20044;-65
2021/05/11 00:09:06;;;;;;;10.57;7.00;;;13.90;99.90;;;;;;5093688;28;20051;-65
2021/05/11 00:11:33;;;;;;;12.60;8.68;;;13.70;99.90;;;;;;5093953;28;20046;-65
2021/05/11 00:13:59;;;;;;;12.55;9.15;;;13.70;99.90;;;;;;5093320;28;20535;-65
2021/05/11 00:16:24;;;;;;;14.27;8.77;;;13.70;99.90;;;;;;5092590;28;20032;-65
2021/05/11 00:18:50;;;;;;;11.32;8.15;;;13.70;99.90;;;;;;5093135;28;20048;-65
2021/05/11 00:21:16;;;;;;;12.98;8.93;;;13.80;99.90;;;;;;5093425;28;20028;-65
2021/05/11 00:23:42;;;;;;;19.08;10.07;;;13.80;99.90;;;;;;5093692;28;20456;-65
2021/05/11 00:26:07;;;;;;;13.50;9.02;;;13.80;99.90;;;;;;5093403;28;20039;-65
2021/05/11 00:28:33;;;;;;;11.95;8.60;;;13.90;99.90;;;;;;5093612;28;20060;-65
2021/05/11 00:30:59;;;;;;;11.63;8.27;;;13.90;99.90;;;;;;5093272;28;20028;-65
2021/05/11 00:33:25;;;;;;;11.32;7.78;;;13.90;99.90;;;;;;5093363;28;20388;-65
2021/05/11 00:35:50;;;;;;;9.63;6.72;;;13.90;99.90;;;;;;5093064;28;20369;-65
2021/05/11 00:38:16;;;;;;;10.43;6.78;;;13.90;99.90;;;;;;5091751;28;20071;-65
2021/05/11 00:40:42;;;;;;;11.07;6.95;;;13.90;99.90;;;;;;5093339;28;20472;-65
2021/05/11 00:43:08;;;;;;;10.65;7.25;;;14.00;99.90;;;;;;5093149;28;20032;-65
2021/05/11 00:45:34;;;;;;;12.32;8.30;;;14.00;99.90;;;;;;5093053;28;20499;-65
2021/05/11 00:47:59;;;;;;;13.77;8.93;;;14.00;99.90;;;;;;5092996;28;20035;-65
2021/05/11 00:50:25;;;;;;;14.90;8.90;;;13.90;99.90;;;;;;5093082;28;20437;-64
2021/05/11 00:52:51;;;;;;;14.85;9.32;;;13.90;99.90;;;;;;5092883;28;20428;-65
2021/05/11 00:55:17;;;;;;;13.52;9.25;;;14.00;99.90;;;;;;5092976;28;20036;-65
2021/05/11 00:57:44;;;;;;;14.77;9.75;;;14.00;99.90;;;;;;5092767;28;20396;-65
2021/05/11 01:00:11;;;;;;;11.48;8.13;;;14.10;99.90;;;;;;5091494;28;20097;-65
2021/05/11 01:02:37;;;;;;;10.35;6.40;;;14.20;99.90;;;;;;5093042;28;20115;-64
2021/05/11 01:05:06;;;;;;;9.48;6.57;;;14.20;99.90;;;;;;5092441;28;20085;-64
2021/05/11 01:07:32;;;;;;;9.52;6.07;;;14.20;99.90;;;;;;5092653;28;20031;-64
2021/05/11 01:09:58;;;;;;;8.68;5.63;;;14.10;99.90;;;;;;5091442;28;20044;-64
2021/05/11 01:12:25;;;;;;;8.88;5.90;;;14.00;99.90;;;;;;5092975;28;20026;-65
2021/05/11 01:14:52;;;;;;;8.68;6.05;;;14.10;99.90;;;;;;5092698;28;20032;-64
2021/05/11 01:17:25;;;;;;;9.43;6.60;;;14.20;99.90;;;;;;5092828;28;20039;-63
2021/05/11 01:19:57;;;;;;;8.98;6.10;;;14.10;99.90;;;;;;5092221;28;20512;-64
2021/05/11 01:22:36;;;;;;;9.75;6.65;;;14.10;99.90;;;;;;5091665;28;20361;-64
2021/05/11 01:25:25;;;;;;;9.82;7.07;;;14.10;99.90;;;;;;5092496;28;20031;-64
2021/05/11 01:46:52;;;;;;;13.23;9.20;;;14.20;99.90;;;;;;5092248;28;20472;-65
2021/05/11 02:24:36;;;;;;;14.57;10.70;;;13.90;99.90;;;;;;5095892;28;20028;-65
2021/05/11 02:27:02;;;;;;;16.10;11.60;;;13.90;99.90;;;;;;5095715;28;20032;-65
2021/05/11 02:29:28;;;;;;;16.52;11.23;;;13.80;99.90;;;;;;5095788;28;20594;-65
2021/05/11 02:31:53;;;;;;;15.57;11.68;;;13.80;99.90;;;;;;5095588;28;20036;-65
2021/05/11 02:34:19;;;;;;;14.88;10.73;;;13.80;99.90;;;;;;5095739;28;20135;-65
2021/05/11 02:36:45;;;;;;;17.50;10.93;;;13.80;99.90;;;;;;5095725;28;20070;-65
2021/05/11 02:39:11;;;;;;;16.17;11.35;;;13.80;99.90;;;;;;5095516;28;20052;-65
2021/05/11 02:41:36;;;;;;;15.15;11.60;;;13.80;99.90;;;;;;5095549;28;20039;-65
2021/05/11 02:44:03;;;;;;;16.05;11.70;;;13.70;99.90;;;;;;5095246;28;20028;-65
2021/05/11 02:46:28;;;;;;;17.35;12.00;;;13.80;99.90;;;;;;5095178;28;20047;-65
2021/05/11 02:48:56;;;;;;;17.85;12.05;;;13.80;99.90;;;;;;5095224;28;20040;-65
2021/05/11 02:51:22;;;;;;;18.10;12.27;;;13.70;99.90;;;;;;5095085;28;20040;-65
2021/05/11 02:53:47;;;;;;;19.75;12.48;;;13.70;99.90;;;;;;5095356;28;20024;-65
2021/05/11 02:56:13;;;;;;;17.52;11.90;;;13.90;99.90;;;;;;5094804;28;20061;-65
2021/05/11 02:58:40;;;;;;;16.52;12.18;;;14.00;99.90;;;;;;5094987;28;20097;-65
2021/05/11 03:01:05;;;;;;;15.02;11.35;;;13.90;99.90;;;;;;5094957;28;20034;-65
2021/05/11 03:03:31;;;;;;;17.98;11.70;;;13.90;99.90;;;;;;5095210;28;20115;-64
2021/05/11 03:05:57;;;;;;;16.55;11.05;;;13.90;99.90;;;;;;5095054;28;20028;-64
2021/05/11 03:08:23;;;;;;;14.80;10.75;;;13.90;99.90;;;;;;5095068;28;20032;-64
2021/05/11 03:10:48;;;;;;;15.20;10.63;;;13.90;99.90;;;;;;5094948;28;20032;-64
2021/05/11 03:13:14;;;;;;;15.25;11.20;;;13.90;99.90;;;;;;5094972;28;20036;-64
2021/05/11 03:15:40;;;;;;;16.88;11.68;;;13.90;99.90;;;;;;5094962;28;20036;-65
2021/05/11 03:18:05;;;;;;;15.82;11.50;;;13.80;99.90;;;;;;5094573;28;20484;-65
2021/05/11 03:20:31;;;;;;;17.73;11.88;;;13.70;99.90;;;;;;5094801;28;20111;-64
2021/05/11 03:22:57;;;;;;;14.80;10.93;;;13.80;99.90;;;;;;5094692;28;20460;-65
2021/05/11 03:25:24;;;;;;;17.02;10.98;;;13.70;99.90;;;;;;5094801;28;20063;-65
2021/05/11 03:27:50;;;;;;;14.00;9.90;;;13.80;99.90;;;;;;5094857;28;20024;-65
2021/05/11 03:30:16;;;;;;;18.10;11.95;;;13.80;99.90;;;;;;5094018;28;20191;-65
2021/05/11 03:32:41;;;;;;;18.88;11.40;;;13.70;99.90;;;;;;5094357;28;20024;-66
2021/05/11 03:35:07;;;;;;;14.77;10.90;;;13.70;99.90;;;;;;5094155;28;20054;-66
2021/05/11 03:37:33;;;;;;;16.13;11.07;;;13.70;99.90;;;;;;5065367;28;20040;-65
2021/05/11 03:39:59;;;;;;;19.58;11.55;;;13.70;99.90;;;;;;5093303;28;20028;-65
2021/05/11 03:42:32;;;;;;;14.45;10.93;;;13.60;99.90;;;;;;5093655;28;20039;-68
2021/05/11 03:45:02;;;;;;;17.27;10.90;;;13.70;99.90;;;;;;5066315;28;20119;-67
2021/05/11 03:47:29;;;;;;;17.88;11.18;;;13.70;99.90;;;;;;5074166;28;20040;-67
2021/05/11 03:49:55;;;;;;;15.90;10.80;;;13.70;99.90;;;;;;5076668;28;20036;-67
2021/05/11 03:52:21;;;;;;;15.15;10.98;;;13.80;99.90;;;;;;5073884;28;20032;-67
2021/05/11 03:54:46;;;;;;;15.27;11.18;;;13.80;99.90;;;;;;5073956;28;20032;-67
2021/05/11 03:57:12;;;;;;;18.23;11.77;;;13.70;99.90;;;;;;5073707;28;20028;-51
2021/05/11 03:59:38;;;;;;;15.55;11.32;;;13.90;99.90;;;;;;5073718;28;20410;-47
2021/05/11 04:02:05;;;;;;;14.20;10.45;;;14.00;99.90;;;;;;5073535;28;20115;-49
2021/05/11 04:04:32;;;;;;;13.85;9.73;;;14.10;99.90;;;;;;5073674;28;20358;-47
2021/05/11 04:06:57;;;;;;;14.45;10.10;;;14.10;99.90;;;;;;5073560;28;20469;-48
2021/05/11 04:09:34;;;;;;;15.15;10.32;;;14.10;99.90;;;;;;5073647;28;20033;-49
2021/05/11 04:12:30;;;;;;;13.52;9.75;;;14.10;99.90;;;;;;5072180;28;20021;-46
2021/05/11 04:17:43;;;;;;;14.23;10.40;;;14.10;99.90;;;;;;5092631;28;20031;-45
2021/05/11 04:20:11;;;;;;;14.05;10.10;;;14.10;99.90;;;;;;5091626;28;20040;-45
2021/05/11 04:22:38;;;;;;;11.80;9.02;;;14.10;99.90;;;;;;5092956;28;20066;-48
2021/05/11 04:25:04;;;;;;;14.65;9.77;;;14.00;99.90;;;;;;5092810;28;20111;-49
2021/05/11 04:27:30;;;;;;;13.98;9.88;;;13.90;99.90;;;;;;5093494;28;20054;-44
2021/05/11 04:29:59;;;;;;;13.30;9.55;;;13.90;99.90;;;;;;5093492;28;20024;-44
2021/05/11 04:32:25;;;;;;;12.48;8.90;;;13.90;99.90;;;;;;5091756;28;20369;-42
2021/05/11 04:34:51;;;;;;;13.05;9.32;;;13.60;99.90;;;;;;5093377;28;20035;-46
2021/05/11 04:37:17;;;;;;;12.75;8.90;;;13.60;99.90;;;;;;5093008;28;20024;-49
2021/05/11 04:39:43;;;;;;;14.02;9.57;;;13.70;99.90;;;;;;5093037;28;20043;-43
2021/05/11 04:42:08;;;;;;;11.60;8.52;;;13.60;99.90;;;;;;5092323;28;20437;-48
2021/05/11 04:44:35;;;;;;;12.95;8.80;;;13.70;99.90;;;;;;5082609;28;20544;-47
2021/05/11 04:47:11;;;;;;;14.30;8.43;;;13.70;99.90;;;;;;5072544;28;20021;-47
2021/05/11 04:49:37;;;;;;;12.90;9.00;;;13.70;99.90;;;;;;5056418;28;20039;-49
2021/05/11 04:52:03;;;;;;;11.48;8.80;;;13.80;99.90;;;;;;5072481;28;20055;-48
2021/05/11 04:54:29;;;;;;;13.82;8.60;;;13.70;99.90;;;;;;5071431;28;20068;-47
2021/05/11 04:56:55;;;;;;;15.00;9.93;;;13.60;99.90;;;;;;5072476;28;20056;-52
2021/05/11 04:59:21;;;;;;;13.05;8.63;;;13.50;99.90;;;;;;5072361;28;20031;-45
2021/05/11 05:01:48;;;;;;;31.20;19.48;;;13.60;99.90;;;;;;5072443;28;20025;-47
2021/05/11 05:04:15;;;;;;;14.13;9.18;;;13.40;99.90;;;;;;5072541;28;20029;-44
2021/05/11 05:06:41;;;;;;;11.20;8.38;;;13.60;99.90;;;;;;5070516;28;20032;-47
2021/05/11 05:09:07;;;;;;;11.23;8.05;;;13.70;99.90;;;;;;5072116;28;20075;-45
2021/05/11 05:11:40;;;;;;;9.38;6.72;;;13.90;99.90;;;;;;5072145;28;20066;-46
2021/05/11 05:14:08;;;;;;;11.68;7.38;;;14.00;99.90;;;;;;5072886;28;20024;-48
2021/05/11 05:16:35;;;;;;;10.85;7.57;;;14.00;99.90;;;;;;5092550;28;20039;-46
2021/05/11 05:19:05;;;;;;;9.57;7.03;;;14.00;99.90;;;;;;5092116;28;20170;-68
2021/05/11 05:21:31;;;;;;;8.68;6.22;;;13.90;99.90;;;;;;5092176;28;20035;-68
2021/05/11 05:24:11;;;;;;;9.27;6.90;;;13.90;99.90;;;;;;5092635;28;20430;-68
2021/05/11 05:26:37;;;;;;;10.97;6.87;;;13.90;99.90;;;;;;5092531;28;20111;-66
2021/05/11 05:29:04;;;;;;;8.52;6.22;;;13.90;99.90;;;;;;5092042;28;20456;-69
2021/05/11 05:31:30;;;;;;;9.15;6.05;;;14.00;99.90;;;;;;5091977;28;20119;-70
2021/05/11 05:33:56;;;;;;;7.25;5.50;;;14.10;99.90;;;;;;5092454;28;20388;-69
2021/05/11 05:36:22;;;;;;;7.25;4.82;;;14.20;99.90;;;;;;5092318;28;20035;-67
2021/05/11 05:38:49;;;;;;;8.50;5.20;;;14.20;99.90;;;;;;5092480;28;20230;-68
2021/05/11 05:41:24;;;;;;;7.95;4.97;;;14.10;99.90;;;;;;5081545;28;20033;-68
2021/05/11 05:43:51;;;;;;;8.43;5.07;;;14.10;99.90;;;;;;5071970;28;20029;-68
2021/05/11 05:46:19;;;;;;;7.38;4.07;;;14.10;99.90;;;;;;5090514;28;20429;-68
2021/05/11 05:48:46;;;;;;;5.57;4.22;;;14.20;99.90;;;;;;5092018;28;20028;-68
2021/05/11 05:51:13;;;;;;;6.30;3.80;;;14.30;99.90;;;;;;5091815;28;20056;-68
2021/05/11 05:53:43;;;;;;;6.00;3.97;;;14.20;99.90;;;;;;5096043;28;20472;-68
2021/05/11 05:56:10;;;;;;;5.63;3.90;;;14.30;99.90;;;;;;5095932;28;20492;-68
2021/05/11 05:58:36;;;;;;;5.85;3.78;;;14.10;99.90;;;;;;5096249;28;20430;-69
2021/05/11 06:01:08;;;;;;;5.35;3.70;;;13.90;99.90;;;;;;5096010;28;20085;-68
2021/05/11 06:06:12;;;;;;;4.70;3.15;;;14.00;99.90;;;;;;5095960;28;20059;-68
2021/05/11 06:08:40;;;;;;;5.03;3.17;;;14.20;99.90;;;;;;5096037;28;20073;-68
2021/05/11 06:13:46;;;;;;;4.53;2.63;;;14.20;99.90;;;;;;5095985;28;20028;-67
2021/05/11 06:18:57;;;;;;;4.03;2.70;;;14.40;99.90;;;;;;5075049;28;20123;-69
2021/05/11 06:21:23;;;;;;;3.10;2.00;;;14.60;99.90;;;;;;5075341;28;20082;-69
2021/05/11 06:23:49;;;;;;;3.40;2.35;;;14.60;99.90;;;;;;5075447;28;20074;-68
2021/05/11 06:26:15;;;;;;;4.63;2.88;;;14.60;99.90;;;;;;5075150;28;20476;-70
2021/05/11 06:28:43;;;;;;;2.67;1.77;;;14.40;99.90;;;;;;5075176;28;20507;-70
2021/05/11 06:31:09;;;;;;;96.38;62.35;;;14.40;99.90;;;;;;5075029;28;20053;-70
2021/05/11 06:33:36;;;;;;;11.60;5.90;;;14.40;99.90;;;;;;5075327;28;20024;-69
2021/05/11 06:36:04;;;;;;;3.50;2.38;;;14.20;99.90;;;;;;5075360;28;20085;-69
2021/05/11 06:38:31;;;;;;;5.00;2.47;;;14.40;99.90;;;;;;5073553;28;20033;-70
2021/05/11 06:40:57;;;;;;;6.07;2.25;;;14.60;99.90;;;;;;5075267;28;20028;-69
2021/05/11 06:43:28;;;;;;;4.45;2.10;;;14.60;99.90;;;;;;5074621;28;20040;-70
2021/05/11 06:48:43;;;;;;;3.95;2.50;;;14.50;99.90;;;;;;5095016;28;20165;-70
2021/05/11 06:53:44;;;;;;;15.48;5.07;;;14.50;99.90;;;;;;5093723;28;20043;-70
2021/05/11 06:56:12;;;;;;;19.15;3.35;;;14.50;99.90;;;;;;5094901;28;20024;-69
2021/05/11 06:58:38;;;;;;;37.58;8.98;;;14.50;99.90;;;;;;5095051;28;20472;-69
2021/05/11 07:01:05;;;;;;;12.30;4.03;;;14.40;99.90;;;;;;5095039;28;20036;-69
2021/05/11 07:03:31;;;;;;;7.25;2.65;;;14.40;99.90;;;;;;5094004;28;20057;-69
2021/05/11 07:05:59;;;;;;;38.58;9.20;;;14.50;99.90;;;;;;5095125;28;20115;-69
2021/05/11 07:08:34;;;;;;;16.73;3.75;;;14.50;99.90;;;;;;5076021;28;20380;-69
2021/05/11 07:11:08;;;;;;;4.35;2.33;;;14.50;99.90;;;;;;5093354;28;20058;-69
2021/05/11 07:13:33;;;;;;;6.53;2.25;;;14.40;99.90;;;;;;5093298;28;20055;-69
2021/05/11 07:15:59;;;;;;;4.32;2.08;;;14.40;99.90;;;;;;5077887;28;20064;-69
2021/05/11 07:18:27;;;;;;;3.75;2.58;;;14.50;99.90;;;;;;5074068;28;20485;-69
2021/05/11 07:20:58;;;;;;;3.90;2.30;;;14.50;99.90;;;;;;5074039;28;20074;-69
2021/05/11 07:23:25;;;;;;;4.30;2.72;;;14.50;99.90;;;;;;5074040;28;20047;-68
2021/05/11 07:31:08;;;;;;;5.75;2.90;;;14.70;99.90;;;;;;5074262;28;20020;-68
2021/05/11 07:33:47;;;;;;;6.00;3.00;;;14.80;99.90;;;;;;5074051;28;20045;-68
2021/05/11 07:36:13;;;;;;;8.15;3.13;;;14.80;99.90;;;;;;5074111;28;20037;-68
2021/05/11 07:38:40;;;;;;;6.15;2.63;;;14.90;99.90;;;;;;5074081;28;20067;-68
2021/05/11 07:41:08;;;;;;;19.15;3.70;;;15.00;99.90;;;;;;5087031;28;20128;-68
2021/05/11 07:43:38;;;;;;;4.78;3.05;;;15.00;99.90;;;;;;5093964;28;20365;-68
2021/05/11 08:02:23;;;;;;;5.75;3.03;;;15.30;99.90;;;;;;5073322;28;20550;-68
2021/05/11 08:17:54;;;;;;;4.47;2.28;;;15.60;99.90;;;;;;5093461;28;20099;-68
2021/05/11 08:28:29;;;;;;;2.80;2.33;;;15.90;99.90;;;;;;5093048;28;20063;-67
2021/05/11 08:30:55;;;;;;;4.60;2.15;;;16.10;99.90;;;;;;5092856;28;20035;-69
2021/05/11 08:33:21;;;;;;;3.50;2.22;;;16.30;99.90;;;;;;5092923;28;20396;-71
2021/05/11 08:35:50;;;;;;;4.72;3.03;;;16.50;99.90;;;;;;5093069;28;20032;-68
2021/05/11 08:38:19;;;;;;;3.67;2.38;;;16.80;99.90;;;;;;5093028;28;20032;-67
2021/05/11 08:40:45;;;;;;;3.15;2.10;;;17.00;99.90;;;;;;5092678;28;20044;-67
2021/05/11 08:43:37;;;;;;;4.05;2.45;;;17.00;99.90;;;;;;5093164;28;20036;-68
2021/05/11 08:46:08;;;;;;;2.97;2.20;;;17.00;99.90;;;;;;5075859;28;20028;-67
2021/05/11 08:48:34;;;;;;;;;;;17.00;99.90;;;;;;5073021;28;20028;-67
2021/05/11 09:27:34;;;;;;;2.85;2.10;;;17.20;99.90;;;;;;5091932;28;20062;-68
2021/05/11 10:48:31;;;;;;;3.10;2.10;;;17.30;99.90;;;;;;5012758;28;20038;-67
2021/05/11 10:51:17;;;;;;;4.32;3.00;;;17.30;99.90;;;;;;5012632;28;20125;-67
2021/05/11 10:53:46;;;;;;;4.15;2.95;;;17.30;99.90;;;;;;5011975;28;20101;-66
2021/05/11 10:56:37;;;;;;;5.53;3.00;;;17.20;99.90;;;;;;5012517;28;20498;-67
2021/05/11 11:01:45;;;;;;;4.43;3.03;;;17.10;99.90;;;;;;5011330;28;20034;-67
2021/05/11 11:04:47;;;;;;;5.20;3.50;;;17.00;99.90;;;;;;4994545;28;20034;-67
2021/05/11 11:07:14;;;;;;;4.95;2.95;;;17.10;99.90;;;;;;5063080;28;20048;-66
2021/05/11 11:09:53;;;;;;;4.65;2.88;;;17.10;99.90;;;;;;5074479;28;20027;-68
2021/05/11 11:12:21;;;;;;;6.57;3.13;;;17.10;99.90;;;;;;5073381;28;20507;-68
2021/05/11 11:14:48;;;;;;;5.25;3.65;;;17.10;99.90;;;;;;5086992;28;20038;-68
2021/05/11 11:17:16;;;;;;;3.65;2.50;;;17.20;99.90;;;;;;5094671;28;20028;-67
2021/05/11 11:19:54;;;;;;;4.22;2.75;;;17.30;99.90;;;;;;5094122;28;20048;-67
2021/05/11 11:25:05;;;;;;;3.60;2.45;;;17.30;99.90;;;;;;5094549;28;20035;-67
2021/05/11 11:27:33;;;;;;;5.05;2.40;;;17.30;99.90;;;;;;5094528;28;20028;-67
2021/05/11 11:30:11;;;;;;;4.65;2.80;;;17.40;99.90;;;;;;5094315;28;20024;-67
2021/05/11 11:32:38;;;;;;;5.53;2.53;;;17.40;99.90;;;;;;5094361;28;20039;-66
2021/05/11 11:35:07;;;;;;;3.17;2.10;;;17.40;99.90;;;;;;5094325;28;20024;-67
2021/05/11 11:37:33;;;;;;;4.57;2.50;;;17.50;99.90;;;;;;5094217;28;20146;-67
2021/05/11 11:40:15;;;;;;;5.85;2.75;;;17.40;99.90;;;;;;5094226;28;20498;-66
2021/05/11 11:42:43;;;;;;;3.97;2.47;;;17.30;99.90;;;;;;5089494;28;20071;-67
2021/05/11 11:45:25;;;;;;;3.85;2.42;;;17.40;99.90;;;;;;5076941;28;20146;-67
2021/05/11 11:48:01;;;;;;;3.33;2.40;;;17.50;99.90;;;;;;5072846;28;20067;-66
2021/05/11 11:50:30;;;;;;;3.20;2.00;;;17.40;99.90;;;;;;5073481;28;20059;-66
2021/05/11 11:58:22;;;;;;;4.45;2.97;;;17.20;99.90;;;;;;5044460;28;20033;-67
2021/05/11 12:00:48;;;;;;;6.18;2.92;;;17.00;99.90;;;;;;5073474;28;20035;-67
2021/05/11 12:03:14;;;;;;;5.75;2.63;;;16.80;99.90;;;;;;5073485;28;20024;-67
2021/05/11 12:05:52;;;;;;;4.60;3.22;;;16.60;99.90;;;;;;5073286;28;20158;-66
2021/05/11 12:08:29;;;;;;;7.28;3.20;;;16.40;99.90;;;;;;5073186;28;20077;-67
2021/05/11 12:10:58;;;;;;;7.00;2.92;;;16.20;99.90;;;;;;5073390;28;20031;-66
2021/05/11 12:13:27;;;;;;;6.38;2.47;;;16.00;99.90;;;;;;5074097;28;20498;-66
2021/05/11 12:16:11;;;;;;;4.65;2.72;;;15.90;99.90;;;;;;5093192;28;20032;-67
2021/05/11 12:18:42;;;;;;;5.70;2.30;;;15.80;99.90;;;;;;5093116;28;20044;-67
2021/05/11 12:21:10;;;;;;;13.77;3.15;;;15.80;99.90;;;;;;5093501;28;20036;-66
2021/05/11 12:23:36;;;;;;;2.55;1.63;;;15.70;99.90;;;;;;5093379;28;20168;-67
2021/05/11 12:26:07;;;;;;;6.00;1.60;;;15.60;99.90;;;;;;5088049;28;20029;-67
2021/05/11 12:28:43;;;;;;;6.13;2.50;;;15.60;99.90;;;;;;5073041;28;20024;-68
2021/05/11 12:31:11;;;;;;;4.35;1.70;;;15.50;99.90;;;;;;5073177;28;20032;-68
2021/05/11 12:33:42;;;;;;;3.30;1.92;;;15.40;99.90;;;;;;5071531;28;20039;-67
2021/05/11 12:36:15;;;;;;;2.75;1.42;;;15.30;99.90;;;;;;5072920;28;20039;-66
2021/05/11 12:38:41;;;;;;;1.85;1.30;;;15.30;99.90;;;;;;5072570;28;20143;-66
2021/05/11 12:41:19;;;;;;;3.13;1.52;;;15.30;99.90;;;;;;5072635;28;20440;-68
2021/05/11 12:43:52;;;;;;;2.88;1.73;;;15.30;99.90;;;;;;5075413;28;20028;-67
2021/05/11 12:46:21;;;;;;;3.38;1.65;;;15.30;99.90;;;;;;5092987;28;20039;-67
2021/05/11 12:49:09;;;;;;;1.70;1.10;;;15.30;99.90;;;;;;5092933;28;20036;-66
2021/05/11 12:51:41;;;;;;;2.28;1.42;;;15.40;99.90;;;;;;5093000;28;20024;-66
2021/05/11 12:54:29;;;;;;;4.82;1.65;;;15.40;99.90;;;;;;5092621;28;20027;-67
2021/05/11 12:59:51;;;;;;;2.90;1.50;;;15.60;99.90;;;;;;5092520;28;20032;-68
2021/05/11 13:29:40;;;;;;;3.63;1.40;;;15.60;99.90;;;;;;5071989;28;20109;-67
2021/05/11 13:32:11;;;;;;;3.00;1.38;;;15.70;99.90;;;;;;5072080;28;20116;-67
2021/05/11 13:34:36;;;;;;;3.95;1.45;;;15.60;99.90;;;;;;5070679;28;20035;-66
2021/05/11 13:37:02;;;;;;;2.10;1.17;;;15.60;99.90;;;;;;5072020;28;20123;-67
2021/05/11 13:39:28;;;;;;;3.58;1.45;;;15.60;99.90;;;;;;5071666;28;20025;-66
2021/05/11 13:41:54;;;;;;;2.35;1.17;;;15.40;99.90;;;;;;5071862;28;20036;-66
2021/05/11 13:44:19;;;;;;;2.83;1.40;;;15.50;99.90;;;;;;5080690;28;20036;-67
2021/05/11 13:46:45;;;;;;;2.30;1.38;;;15.70;99.90;;;;;;5091931;28;20047;-66
2021/05/11 13:49:14;;;;;;;4.57;1.60;;;15.80;99.90;;;;;;5092067;28;20464;-66
2021/05/11 13:51:40;;;;;;;5.63;2.80;;;15.90;99.90;;;;;;5081296;28;20034;-67
2021/05/11 13:54:07;;;;;;;4.07;2.20;;;15.70;99.90;;;;;;5071991;28;20422;-68
2021/05/11 13:56:54;;;;;;;5.50;2.10;;;15.80;99.90;;;;;;5071708;28;20033;-67
2021/05/11 14:04:39;;;;;;;2.97;1.65;;;15.70;99.90;;;;;;5070280;28;20036;-68
2021/05/11 14:07:05;;;;;;;4.10;2.05;;;15.80;99.90;;;;;;5071534;28;20086;-67
2021/05/11 14:09:32;;;;;;;5.20;2.42;;;15.80;99.90;;;;;;5071635;28;20453;-68
2021/05/11 14:11:57;;;;;;;7.82;2.95;;;15.80;99.90;;;;;;5070468;28;20040;-67
2021/05/11 14:14:23;;;;;;;4.95;2.05;;;15.70;99.90;;;;;;5084177;28;20032;-67
2021/05/11 14:16:49;;;;;;;3.85;2.35;;;15.60;99.90;;;;;;5095641;28;20032;-67
2021/05/11 14:19:18;;;;;;;4.18;2.60;;;15.60;99.90;;;;;;5095367;28;20044;-67
2021/05/11 14:21:43;;;;;;;4.00;2.45;;;15.60;99.90;;;;;;5095513;28;20043;-67
2021/05/11 14:24:09;;;;;;;4.85;3.03;;;15.60;99.90;;;;;;5095451;28;20036;-67
2021/05/11 14:26:36;;;;;;;5.68;3.55;;;15.60;99.90;;;;;;5095637;28;20469;-66
2021/05/11 14:29:03;;;;;;;6.13;3.47;;;15.40;99.90;;;;;;5095221;28;20021;-68
2021/05/11 14:31:29;;;;;;;6.30;3.35;;;15.40;99.90;;;;;;5095478;28;20227;-66
2021/05/11 14:33:55;;;;;;;8.93;4.70;;;15.30;99.90;;;;;;5095502;28;20043;-67
2021/05/11 14:36:21;;;;;;;7.63;2.78;;;15.20;99.90;;;;;;5093855;28;20032;-67
2021/05/11 14:38:48;;;;;;;7.45;3.10;;;15.40;99.90;;;;;;5094193;28;20036;-67
2021/05/11 14:41:14;;;;;;;6.07;3.15;;;15.50;99.90;;;;;;5094935;28;20136;-67
2021/05/11 14:43:42;;;;;;;6.10;3.80;;;15.50;99.90;;;;;;5091796;28;20189;-68
2021/05/11 14:46:10;;;;;;;7.57;3.28;;;15.30;99.90;;;;;;5074602;28;20035;-67
2021/05/11 14:48:36;;;;;;;5.10;3.25;;;15.20;99.90;;;;;;5074914;28;20047;-68
2021/05/11 14:51:04;;;;;;;6.78;3.58;;;15.30;99.90;;;;;;5073403;28;20028;-68
2021/05/11 14:53:31;;;;;;;4.47;2.05;;;15.30;99.90;;;;;;5074947;28;20037;-68
2021/05/11 14:55:57;;;;;;;3.78;1.70;;;15.20;99.90;;;;;;5074789;28;20090;-68
2021/05/11 14:58:24;;;;;;;3.17;1.88;;;15.20;99.90;;;;;;5074929;28;20038;-68
2021/05/11 15:00:50;;;;;;;3.28;1.60;;;15.10;99.90;;;;;;5073325;28;20075;-68
2021/05/11 15:03:15;;;;;;;2.55;1.25;;;15.20;99.90;;;;;;5074630;28;20035;-68
2021/05/11 15:05:42;;;;;;;2.53;1.20;;;15.10;99.90;;;;;;5074008;28;20112;-68
2021/05/11 15:08:08;;;;;;;2.13;1.00;;;15.10;99.90;;;;;;5074552;28;20024;-68
2021/05/11 15:10:36;;;;;;;1.02;0.80;;;15.10;99.90;;;;;;5074546;28;20115;-68
2021/05/11 15:13:02;;;;;;;5.18;1.38;;;15.10;99.90;;;;;;5074563;28;20120;-67
2021/05/11 15:15:29;;;;;;;3.50;1.63;;;15.10;99.90;;;;;;5092868;28;20032;-66
2021/05/11 15:20:21;;;;;;;3.30;1.17;;;15.10;99.90;;;;;;5094397;28;20537;-67
2021/05/11 15:22:52;;;;;;;3.42;1.50;;;15.10;99.90;;;;;;5079390;28;20025;-65
2021/05/11 15:25:20;;;;;;;6.00;3.03;;;15.10;99.90;;;;;;5072181;28;20123;-66
2021/05/11 15:27:46;;;;;;;7.28;4.53;;;15.10;99.90;;;;;;5074469;28;20287;-68
2021/05/11 15:30:12;;;;;;;6.18;1.98;;;15.20;99.90;;;;;;5074402;28;20028;-67
2021/05/11 15:32:56;;;;;;;3.58;2.47;;;15.20;99.90;;;;;;5074439;28;20041;-68
2021/05/11 15:35:32;;;;;;;4.47;2.20;;;15.20;99.90;;;;;;5074288;28;20029;-67
2021/05/11 15:38:01;;;;;;;4.32;2.92;;;15.30;99.90;;;;;;5074077;28;20044;-66
2021/05/11 15:40:29;;;;;;;6.88;4.13;;;15.40;99.90;;;;;;5074067;28;20024;-66
2021/05/11 15:42:57;;;;;;;6.88;4.57;;;15.50;99.90;;;;;;5081242;28;20039;-67
2021/05/11 15:45:25;;;;;;;7.75;4.78;;;15.50;99.90;;;;;;5094317;28;20047;-66
2021/05/11 15:47:54;;;;;;;7.43;5.03;;;15.60;99.90;;;;;;5093865;28;20021;-67
2021/05/11 15:50:34;;;;;;;7.70;4.63;;;15.60;99.90;;;;;;5094098;28;20119;-68
2021/05/11 15:53:03;;;;;;;7.45;4.53;;;15.50;99.90;;;;;;5077589;28;20033;-67
2021/05/11 15:55:38;;;;;;;5.57;3.42;;;15.40;99.90;;;;;;5045536;28;20040;-67
2021/05/11 15:58:06;;;;;;;7.20;2.40;;;15.40;99.90;;;;;;5072075;28;20048;-66
2021/05/11 16:00:34;;;;;;;6.43;3.03;;;15.40;99.90;;;;;;5073344;28;20434;-67
2021/05/11 16:03:03;;;;;;;3.33;2.22;;;15.30;99.90;;;;;;5073413;28;20040;-67
2021/05/11 16:05:29;;;;;;;4.90;2.83;;;15.20;99.90;;;;;;5073540;28;20412;-67
2021/05/11 16:07:55;;;;;;;3.70;2.10;;;15.10;99.90;;;;;;5072929;28;20029;-67
2021/05/11 16:10:22;;;;;;;4.40;3.05;;;15.10;99.90;;;;;;5073325;28;20530;-67
2021/05/11 16:12:47;;;;;;;4.18;2.40;;;15.10;99.90;;;;;;5073005;28;20108;-68
2021/05/11 16:15:18;;;;;;;4.07;2.20;;;15.20;99.90;;;;;;5072943;28;20119;-67
2021/05/11 16:17:45;;;;;;;6.38;1.95;;;15.10;99.90;;;;;;5073067;28;20032;-67
2021/05/11 16:20:12;;;;;;;2.90;1.85;;;15.10;99.90;;;;;;5073273;28;20128;-67
2021/05/11 16:22:39;;;;;;;3.60;1.98;;;15.00;99.90;;;;;;5086358;28;20032;-67
2021/05/11 16:25:09;;;;;;;2.65;1.70;;;15.00;99.90;;;;;;5092134;28;20476;-67
2021/05/11 16:27:36;;;;;;;2.95;1.60;;;14.90;99.90;;;;;;5093460;28;20059;-67
2021/05/11 16:30:04;;;;;;;3.13;2.00;;;14.80;99.90;;;;;;5091111;27;20032;-65
2021/05/11 16:32:29;;;;;;;4.20;1.70;;;14.80;99.90;;;;;;5093338;28;20071;-66
2021/05/11 16:34:55;;;;;;;2.78;1.30;;;14.90;99.90;;;;;;5093090;28;20052;-66
2021/05/11 16:37:21;;;;;;;3.97;1.58;;;14.90;99.90;;;;;;5092148;28;20028;-67
2021/05/11 16:39:46;;;;;;;2.45;1.05;;;14.80;99.90;;;;;;5092948;28;20028;-67
2021/05/11 16:42:13;;;;;;;1.60;1.05;;;14.80;99.90;;;;;;5092868;28;20391;-67
2021/05/11 16:44:39;;;;;;;3.33;1.58;;;14.70;99.90;;;;;;5093167;28;20035;-67
2021/05/11 16:47:05;;;;;;;3.15;1.40;;;14.50;99.90;;;;;;5093026;28;20036;-67
2021/05/11 16:49:31;;;;;;;6.78;1.95;;;14.60;99.90;;;;;;5093037;28;20067;-66
2021/05/11 16:51:57;;;;;;;5.05;1.50;;;14.50;99.90;;;;;;5085283;28;20056;-66
2021/05/11 16:54:26;;;;;;;2.55;1.60;;;14.50;99.90;;;;;;5072616;28;20107;-66
2021/05/11 16:56:52;;;;;;;2.90;1.15;;;14.50;99.90;;;;;;5071372;28;20115;-67
2021/05/11 16:59:19;;;;;;;2.40;1.10;;;14.60;99.90;;;;;;5072777;28;20445;-67
2021/05/11 17:01:46;;;;;;;3.35;1.58;;;14.40;99.90;;;;;;5072534;28;20036;-67
2021/05/11 17:04:14;;;;;;;5.50;2.33;;;14.40;99.90;;;;;;5072545;28;20028;-66
2021/05/11 17:06:43;;;;;;;2.63;1.63;;;14.20;99.90;;;;;;5070609;28;20028;-66
2021/05/11 17:09:10;;;;;;;2.72;1.60;;;14.20;99.90;;;;;;5071835;28;20036;-68
2021/05/11 17:11:38;;;;;;;3.20;1.52;;;14.10;99.90;;;;;;5072316;28;20092;-68
2021/05/11 17:14:06;;;;;;;3.60;1.83;;;14.20;99.90;;;;;;5071177;28;20116;-68
2021/05/11 17:16:49;;;;;;;4.25;1.77;;;14.20;99.90;;;;;;5071955;28;20058;-67
2021/05/11 17:19:14;;;;;;;2.60;1.58;;;14.30;99.90;;;;;;5071937;28;20425;-67
2021/05/11 17:21:40;;;;;;;3.70;2.10;;;14.30;99.90;;;;;;5077413;28;20065;-68
2021/05/11 17:24:07;;;;;;;4.60;2.10;;;14.20;99.90;;;;;;5091958;28;20055;-68
2021/05/11 17:26:32;;;;;;;4.63;2.22;;;14.30;99.90;;;;;;5092423;28;20419;-68